Time;durP1;ratioP1;P1;durP2;ratioP2;P2;SDS_P1;SDS_P2;PMS_P1;PMS_P2;Temp;Humidity;BMP_temperature;BMP_pressure;BME280_temperature;BME280_humidity;BME280_pressure;Samples;Min_cycle;Max_cycle;Signal;HPM_P1;HPM_P2
2023/07/29 00:00:52;;;;;;;1.70;1.60;;;;;;;;;;5104841;28;42765;-63
2023/07/29 00:03:20;;;;;;;1.60;1.50;;;;;;;;;;5105978;27;41837;-63
2023/07/29 00:05:49;;;;;;;1.80;1.70;;;;;;;;;;5106449;27;42391;-64
2023/07/29 00:08:17;;;;;;;1.80;1.70;;;;;;;;;;5106847;27;41413;-63
2023/07/29 00:10:46;;;;;;;1.60;1.50;;;;;;;;;;5105760;27;42172;-63
2023/07/29 00:13:14;;;;;;;1.88;1.73;;;;;;;;;;5106314;27;42039;-64
2023/07/29 00:15:42;;;;;;;1.50;1.40;;;;;;;;;;5105867;27;41103;-64
2023/07/29 00:18:10;;;;;;;1.67;1.58;;;;;;;;;;5107362;27;41285;-63
2023/07/29 00:20:38;;;;;;;1.88;1.65;;;;;;;;;;5106055;27;42723;-64
2023/07/29 00:23:06;;;;;;;1.63;1.52;;;;;;;;;;5106169;27;40967;-64
2023/07/29 00:25:34;;;;;;;1.70;1.60;;;;;;;;;;5106821;27;40998;-64
2023/07/29 00:28:03;;;;;;;1.40;1.30;;;;;;;;;;5106894;27;41114;-64
2023/07/29 00:30:31;;;;;;;1.50;1.40;;;;;;;;;;5105920;28;42670;-64
2023/07/29 00:32:59;;;;;;;1.27;1.17;;;;;;;;;;5105615;28;40434;-64
2023/07/29 00:35:27;;;;;;;1.55;1.45;;;;;;;;;;5105908;27;41371;-64
2023/07/29 00:37:55;;;;;;;1.45;1.35;;;;;;;;;;5106583;28;42418;-64
2023/07/29 00:40:23;;;;;;;1.30;1.20;;;;;;;;;;5106812;28;43387;-64
2023/07/29 00:42:51;;;;;;;1.33;1.23;;;;;;;;;;5086431;28;41437;-64
2023/07/29 00:45:21;;;;;;;1.30;1.20;;;;;;;;;;5085602;28;41765;-64
2023/07/29 00:47:49;;;;;;;1.33;1.23;;;;;;;;;;5101188;28;42073;-64
2023/07/29 00:50:17;;;;;;;1.50;1.40;;;;;;;;;;5102050;27;41197;-64
2023/07/29 00:52:49;;;;;;;0.88;0.88;;;;;;;;;;5105547;28;42671;-64
2023/07/29 00:55:17;;;;;;;1.48;1.38;;;;;;;;;;5106468;28;40926;-64
2023/07/29 00:57:48;;;;;;;1.38;1.27;;;;;;;;;;5105749;28;42034;-64
2023/07/29 01:00:16;;;;;;;1.27;1.13;;;;;;;;;;5090145;28;40412;-64
2023/07/29 01:02:45;;;;;;;1.10;1.00;;;;;;;;;;5085951;28;41454;-64
2023/07/29 01:05:14;;;;;;;1.30;1.20;;;;;;;;;;5085631;28;41874;-65
2023/07/29 01:07:44;;;;;;;1.23;1.13;;;;;;;;;;5084787;28;41968;-64
2023/07/29 01:10:15;;;;;;;1.00;1.00;;;;;;;;;;5087605;28;42981;-64
2023/07/29 01:12:45;;;;;;;1.30;1.20;;;;;;;;;;5103244;28;42427;-64
2023/07/29 01:15:14;;;;;;;1.27;1.17;;;;;;;;;;5108803;28;40717;-64
2023/07/29 01:17:49;;;;;;;1.20;1.10;;;;;;;;;;5106614;28;40875;-64
2023/07/29 01:20:20;;;;;;;1.05;1.00;;;;;;;;;;5107887;28;42857;-64
2023/07/29 01:22:48;;;;;;;1.30;1.20;;;;;;;;;;5108061;27;42054;-64
2023/07/29 01:25:17;;;;;;;1.50;1.02;;;;;;;;;;5109708;28;43168;-64
2023/07/29 01:27:45;;;;;;;1.20;1.10;;;;;;;;;;5107044;28;41217;-64
2023/07/29 01:30:13;;;;;;;1.20;1.10;;;;;;;;;;5108272;27;41338;-64
2023/07/29 01:32:46;;;;;;;1.10;1.00;;;;;;;;;;5107761;28;40158;-64
2023/07/29 01:35:17;;;;;;;1.10;1.00;;;;;;;;;;5107330;28;41604;-64
2023/07/29 01:37:45;;;;;;;0.93;0.90;;;;;;;;;;5109431;28;42691;-64
2023/07/29 01:40:13;;;;;;;1.10;1.02;;;;;;;;;;5108802;28;41794;-64
2023/07/29 01:42:42;;;;;;;1.00;1.00;;;;;;;;;;5105630;28;41892;-64
2023/07/29 01:45:11;;;;;;;1.10;1.00;;;;;;;;;;5109564;27;41461;-64
2023/07/29 01:47:41;;;;;;;1.77;1.13;;;;;;;;;;5108229;28;43089;-64
2023/07/29 01:50:09;;;;;;;0.90;0.90;;;;;;;;;;5107945;28;39790;-64
2023/07/29 01:52:37;;;;;;;0.90;0.80;;;;;;;;;;5097255;28;41758;-64
2023/07/29 01:55:06;;;;;;;1.00;0.88;;;;;;;;;;5104510;28;41436;-64
2023/07/29 01:57:34;;;;;;;1.00;0.90;;;;;;;;;;5105008;28;41872;-64
2023/07/29 02:00:04;;;;;;;0.80;0.80;;;;;;;;;;5107577;28;40945;-64
2023/07/29 02:02:41;;;;;;;1.33;0.90;;;;;;;;;;5107860;28;41612;-64
2023/07/29 02:05:09;;;;;;;0.80;0.80;;;;;;;;;;5107748;28;39849;-64
2023/07/29 02:07:37;;;;;;;1.10;1.00;;;;;;;;;;5108786;28;41742;-64
2023/07/29 02:10:05;;;;;;;1.10;1.00;;;;;;;;;;5108781;28;40664;-64
2023/07/29 02:12:33;;;;;;;0.88;0.88;;;;;;;;;;5106954;28;40828;-64
2023/07/29 02:15:04;;;;;;;0.98;0.88;;;;;;;;;;5108036;28;40749;-64
2023/07/29 02:17:31;;;;;;;0.80;0.80;;;;;;;;;;5108473;28;43289;-64
2023/07/29 02:20:00;;;;;;;0.80;0.80;;;;;;;;;;5107648;27;41854;-64
2023/07/29 02:22:27;;;;;;;0.70;0.70;;;;;;;;;;5105808;28;40074;-64
2023/07/29 02:24:55;;;;;;;1.17;1.08;;;;;;;;;;5109193;27;41540;-64
2023/07/29 02:27:25;;;;;;;1.15;1.05;;;;;;;;;;5107404;28;40647;-64
2023/07/29 02:29:53;;;;;;;1.00;0.90;;;;;;;;;;5106991;28;40080;-64
2023/07/29 02:32:22;;;;;;;1.10;1.00;;;;;;;;;;5106589;28;40492;-64
2023/07/29 02:34:51;;;;;;;1.02;0.93;;;;;;;;;;5107037;28;40656;-64
2023/07/29 02:37:20;;;;;;;0.90;0.90;;;;;;;;;;5107701;27;41558;-64
2023/07/29 02:39:48;;;;;;;0.90;0.90;;;;;;;;;;5106709;28;40529;-64
2023/07/29 02:42:16;;;;;;;1.02;0.93;;;;;;;;;;5108425;28;42129;-64
2023/07/29 02:44:44;;;;;;;1.13;1.02;;;;;;;;;;5105914;28;40210;-64
2023/07/29 02:47:12;;;;;;;0.80;0.80;;;;;;;;;;5108745;28;41773;-64
2023/07/29 02:49:41;;;;;;;0.70;0.70;;;;;;;;;;5108339;28;40957;-64
2023/07/29 02:52:09;;;;;;;1.77;0.90;;;;;;;;;;5106185;28;41417;-64
2023/07/29 02:54:37;;;;;;;1.00;0.90;;;;;;;;;;5108103;27;42349;-64
2023/07/29 02:57:05;;;;;;;0.80;0.80;;;;;;;;;;5108896;28;42005;-64
2023/07/29 02:59:33;;;;;;;0.63;0.63;;;;;;;;;;5092085;28;41555;-64
2023/07/29 03:02:02;;;;;;;0.80;0.80;;;;;;;;;;5086415;28;40266;-64
2023/07/29 03:04:30;;;;;;;0.60;0.60;;;;;;;;;;5085149;28;41126;-64
2023/07/29 03:07:02;;;;;;;0.75;0.75;;;;;;;;;;5085896;28;43184;-64
2023/07/29 03:09:30;;;;;;;0.75;0.75;;;;;;;;;;5087179;28;41939;-64
2023/07/29 03:11:59;;;;;;;0.88;0.88;;;;;;;;;;5104315;28;42336;-64
2023/07/29 03:14:27;;;;;;;1.60;0.70;;;;;;;;;;5107748;28;43159;-64
2023/07/29 03:16:55;;;;;;;0.70;0.70;;;;;;;;;;5107810;27;41372;-64
2023/07/29 03:19:23;;;;;;;0.77;0.77;;;;;;;;;;5107087;27;41808;-64
2023/07/29 03:21:51;;;;;;;1.05;0.95;;;;;;;;;;5106641;28;41711;-64
2023/07/29 03:24:21;;;;;;;1.13;0.95;;;;;;;;;;5106699;28;40412;-64
2023/07/29 03:26:49;;;;;;;1.02;0.75;;;;;;;;;;5105360;28;40806;-64
2023/07/29 03:29:17;;;;;;;0.80;0.80;;;;;;;;;;5106258;28;39868;-64
2023/07/29 03:31:45;;;;;;;0.90;0.88;;;;;;;;;;5104905;27;40420;-64
2023/07/29 03:34:13;;;;;;;0.68;0.60;;;;;;;;;;5107317;27;43242;-64
2023/07/29 03:36:47;;;;;;;0.80;0.80;;;;;;;;;;5106904;28;20479;-64
2023/07/29 03:39:15;;;;;;;0.85;0.80;;;;;;;;;;5106142;28;40636;-64
2023/07/29 03:41:44;;;;;;;0.95;0.85;;;;;;;;;;5106874;28;43549;-64
2023/07/29 03:44:12;;;;;;;0.98;0.90;;;;;;;;;;5108227;28;41195;-64
2023/07/29 03:46:40;;;;;;;0.85;0.73;;;;;;;;;;5104138;28;41664;-64
2023/07/29 03:49:10;;;;;;;1.02;0.93;;;;;;;;;;5105963;28;40953;-64
2023/07/29 03:51:38;;;;;;;0.93;0.80;;;;;;;;;;5104732;28;40466;-64
2023/07/29 03:54:06;;;;;;;0.70;0.70;;;;;;;;;;5106670;28;41931;-64
2023/07/29 03:56:35;;;;;;;0.77;0.65;;;;;;;;;;5106584;28;41327;-64
2023/07/29 03:59:05;;;;;;;0.70;0.70;;;;;;;;;;5105278;28;40198;-64
2023/07/29 04:01:33;;;;;;;0.70;0.70;;;;;;;;;;5104687;28;41017;-64
2023/07/29 04:04:01;;;;;;;0.80;0.70;;;;;;;;;;5105842;28;40280;-64
2023/07/29 04:06:29;;;;;;;0.70;0.70;;;;;;;;;;5105648;28;41105;-64
2023/07/29 04:08:57;;;;;;;0.80;0.80;;;;;;;;;;5102014;28;40180;-64
2023/07/29 04:11:25;;;;;;;0.70;0.68;;;;;;;;;;5107686;27;41394;-64
2023/07/29 04:13:53;;;;;;;0.43;0.43;;;;;;;;;;5106098;28;40315;-64
2023/07/29 04:16:23;;;;;;;0.70;0.70;;;;;;;;;;5122071;27;39997;-64
2023/07/29 04:18:51;;;;;;;0.80;0.80;;;;;;;;;;5105216;28;41514;-64
2023/07/29 04:21:19;;;;;;;0.65;0.60;;;;;;;;;;5105856;28;42406;-64
2023/07/29 04:23:47;;;;;;;0.65;0.63;;;;;;;;;;5105078;27;42045;-64
2023/07/29 04:26:15;;;;;;;0.55;0.55;;;;;;;;;;5105606;28;40571;-64
2023/07/29 04:28:43;;;;;;;0.70;0.70;;;;;;;;;;5117234;27;38685;-64
2023/07/29 04:31:11;;;;;;;0.55;0.55;;;;;;;;;;5122528;27;40886;-64
2023/07/29 04:33:40;;;;;;;0.73;0.73;;;;;;;;;;5106237;28;42845;-64
2023/07/29 04:36:08;;;;;;;0.55;0.55;;;;;;;;;;5105091;28;40821;-64
2023/07/29 04:38:38;;;;;;;0.70;0.60;;;;;;;;;;5106392;28;42708;-64
2023/07/29 04:41:07;;;;;;;0.82;0.70;;;;;;;;;;5105433;28;40786;-64
2023/07/29 04:43:35;;;;;;;1.33;0.70;;;;;;;;;;5105115;27;39748;-64
2023/07/29 04:46:03;;;;;;;0.70;0.70;;;;;;;;;;5109010;28;40841;-64
2023/07/29 04:48:31;;;;;;;0.65;0.65;;;;;;;;;;5108416;28;42121;-64
2023/07/29 04:51:00;;;;;;;0.60;0.60;;;;;;;;;;5108530;28;40264;-64
2023/07/29 04:53:28;;;;;;;1.08;0.73;;;;;;;;;;5108112;28;40502;-64
2023/07/29 04:55:56;;;;;;;1.60;0.77;;;;;;;;;;5110463;28;42193;-64
2023/07/29 04:58:24;;;;;;;0.70;0.65;;;;;;;;;;5107610;28;40123;-64
2023/07/29 05:00:52;;;;;;;0.52;0.50;;;;;;;;;;5095150;27;41911;-64
2023/07/29 05:03:20;;;;;;;0.70;0.70;;;;;;;;;;5089786;28;41155;-64
2023/07/29 05:05:48;;;;;;;0.50;0.50;;;;;;;;;;5087805;28;40187;-64
2023/07/29 05:08:20;;;;;;;0.80;0.70;;;;;;;;;;5088123;28;42019;-64
2023/07/29 05:10:49;;;;;;;0.73;0.70;;;;;;;;;;5105023;28;39906;-64
2023/07/29 05:13:17;;;;;;;0.52;0.50;;;;;;;;;;5103330;28;41937;-64
2023/07/29 05:15:45;;;;;;;1.08;0.50;;;;;;;;;;5109785;27;41557;-64
2023/07/29 05:18:13;;;;;;;1.27;0.65;;;;;;;;;;5109586;28;41741;-64
2023/07/29 05:20:41;;;;;;;0.60;0.60;;;;;;;;;;5107970;28;40953;-64
2023/07/29 05:23:10;;;;;;;0.60;0.60;;;;;;;;;;5108777;28;39870;-64
2023/07/29 05:25:40;;;;;;;0.80;0.75;;;;;;;;;;5107020;28;40293;-64
2023/07/29 05:28:08;;;;;;;0.63;0.40;;;;;;;;;;5110097;28;41871;-64
2023/07/29 05:30:37;;;;;;;0.47;0.47;;;;;;;;;;5109230;28;41344;-64
2023/07/29 05:33:07;;;;;;;0.95;0.68;;;;;;;;;;5107421;28;41548;-65
2023/07/29 05:35:35;;;;;;;0.63;0.50;;;;;;;;;;5108177;28;40083;-64
2023/07/29 05:38:06;;;;;;;0.50;0.50;;;;;;;;;;5108102;28;40313;-64
2023/07/29 05:40:33;;;;;;;0.55;0.50;;;;;;;;;;5108227;28;42275;-64
2023/07/29 05:43:04;;;;;;;0.43;0.43;;;;;;;;;;5108557;28;40848;-64
2023/07/29 05:45:32;;;;;;;0.40;0.40;;;;;;;;;;5109500;28;42377;-64
2023/07/29 05:48:00;;;;;;;0.65;0.52;;;;;;;;;;5107110;28;41763;-64
2023/07/29 05:50:28;;;;;;;1.08;0.35;;;;;;;;;;5108783;27;42476;-64
2023/07/29 05:52:56;;;;;;;0.60;0.50;;;;;;;;;;5109543;28;41384;-64
2023/07/29 05:55:25;;;;;;;0.40;0.40;;;;;;;;;;5105972;27;40583;-64
2023/07/29 05:57:53;;;;;;;0.82;0.40;;;;;;;;;;5109836;28;42618;-64
2023/07/29 06:00:22;;;;;;;0.57;0.40;;;;;;;;;;5096879;28;42186;-64
2023/07/29 06:02:51;;;;;;;0.60;0.60;;;;;;;;;;5110827;27;41681;-64
2023/07/29 06:05:22;;;;;;;0.30;0.30;;;;;;;;;;5111831;27;40761;-64
2023/07/29 06:07:50;;;;;;;0.60;0.50;;;;;;;;;;5098676;28;43124;-64
2023/07/29 06:10:18;;;;;;;0.30;0.30;;;;;;;;;;5109206;28;41170;-64
2023/07/29 06:12:46;;;;;;;0.43;0.35;;;;;;;;;;5107560;28;40757;-64
2023/07/29 06:15:14;;;;;;;0.40;0.40;;;;;;;;;;5108801;28;43162;-64
2023/07/29 06:17:44;;;;;;;0.32;0.32;;;;;;;;;;5107697;28;42244;-64
2023/07/29 06:20:12;;;;;;;0.40;0.40;;;;;;;;;;5105871;28;40468;-64
2023/07/29 06:22:40;;;;;;;0.32;0.32;;;;;;;;;;5104549;28;40180;-64
2023/07/29 06:25:08;;;;;;;0.40;0.40;;;;;;;;;;5108035;27;41417;-64
2023/07/29 06:27:36;;;;;;;0.30;0.30;;;;;;;;;;5106818;27;43172;-64
2023/07/29 06:30:05;;;;;;;0.43;0.43;;;;;;;;;;5091436;27;40987;-64
2023/07/29 06:32:33;;;;;;;0.20;0.20;;;;;;;;;;5100073;28;43285;-64
2023/07/29 06:35:02;;;;;;;0.57;0.40;;;;;;;;;;5108736;27;41914;-64
2023/07/29 06:37:30;;;;;;;0.40;0.35;;;;;;;;;;5107506;27;41502;-64
2023/07/29 06:39:58;;;;;;;0.38;0.38;;;;;;;;;;5108741;27;41615;-64
2023/07/29 06:42:26;;;;;;;3.30;1.15;;;;;;;;;;5107075;27;40931;-63
2023/07/29 06:44:54;;;;;;;2.35;1.48;;;;;;;;;;5108301;27;43510;-65
2023/07/29 06:47:22;;;;;;;3.75;1.92;;;;;;;;;;5107763;27;42103;-65
2023/07/29 06:49:50;;;;;;;4.47;1.95;;;;;;;;;;5107626;27;41565;-65
2023/07/29 06:52:20;;;;;;;4.00;2.20;;;;;;;;;;5107308;27;42564;-65
2023/07/29 06:54:48;;;;;;;3.33;2.58;;;;;;;;;;5093625;27;42572;-65
2023/07/29 06:57:15;;;;;;;3.25;2.35;;;;;;;;;;5088242;28;42367;-65
2023/07/29 06:59:43;;;;;;;5.65;2.53;;;;;;;;;;5108219;27;41127;-65
2023/07/29 07:02:11;;;;;;;5.97;2.40;;;;;;;;;;5108573;27;41140;-65
2023/07/29 07:04:39;;;;;;;6.13;3.05;;;;;;;;;;5106773;27;41721;-65
2023/07/29 07:07:07;;;;;;;3.95;2.40;;;;;;;;;;5107144;27;43134;-65
2023/07/29 07:09:37;;;;;;;3.85;2.55;;;;;;;;;;5104978;27;42422;-65
2023/07/29 07:12:05;;;;;;;4.40;2.53;;;;;;;;;;5086969;28;42639;-65
2023/07/29 07:14:33;;;;;;;4.65;2.75;;;;;;;;;;5087349;28;43025;-65
2023/07/29 07:17:01;;;;;;;4.35;2.25;;;;;;;;;;5087971;28;40714;-65
2023/07/29 07:19:29;;;;;;;4.20;2.63;;;;;;;;;;5086276;28;41681;-65
2023/07/29 07:21:57;;;;;;;3.65;2.72;;;;;;;;;;5087760;28;42062;-64
2023/07/29 07:24:25;;;;;;;9.27;3.58;;;;;;;;;;5087313;28;41708;-61
2023/07/29 07:26:54;;;;;;;7.03;3.53;;;;;;;;;;5086871;28;42568;-64
2023/07/29 07:29:22;;;;;;;5.68;3.47;;;;;;;;;;5087645;28;41790;-64
2023/07/29 07:31:50;;;;;;;6.53;3.08;;;;;;;;;;5086524;28;41476;-65
2023/07/29 07:34:18;;;;;;;5.05;3.53;;;;;;;;;;5087297;28;42148;-63
2023/07/29 07:36:46;;;;;;;5.88;2.95;;;;;;;;;;5087318;28;41401;-64
2023/07/29 07:39:14;;;;;;;8.10;3.38;;;;;;;;;;5086889;28;41717;-66
2023/07/29 07:41:42;;;;;;;6.15;3.40;;;;;;;;;;5086760;28;42997;-66
2023/07/29 07:44:15;;;;;;;10.77;3.83;;;;;;;;;;5087800;28;41291;-66
2023/07/29 07:46:43;;;;;;;7.45;3.53;;;;;;;;;;5106027;27;41589;-65
2023/07/29 07:49:11;;;;;;;5.03;3.58;;;;;;;;;;5107637;27;41361;-66
2023/07/29 07:51:39;;;;;;;4.65;3.72;;;;;;;;;;5105933;27;41500;-65
2023/07/29 07:54:06;;;;;;;4.25;3.55;;;;;;;;;;5100804;27;42737;-64
2023/07/29 07:56:34;;;;;;;5.40;3.83;;;;;;;;;;5103266;28;42055;-66
2023/07/29 07:59:03;;;;;;;6.65;3.53;;;;;;;;;;5107788;27;42072;-65
2023/07/29 08:01:36;;;;;;;6.07;3.40;;;;;;;;;;5105949;27;41789;-65
2023/07/29 08:04:04;;;;;;;5.05;3.40;;;;;;;;;;5107485;27;41127;-65
2023/07/29 08:06:32;;;;;;;4.32;3.33;;;;;;;;;;5107090;27;41733;-66
2023/07/29 08:09:01;;;;;;;5.57;3.15;;;;;;;;;;5105714;27;40764;-65
2023/07/29 08:11:29;;;;;;;11.02;3.00;;;;;;;;;;5104716;27;40971;-66
2023/07/29 08:13:57;;;;;;;17.15;2.95;;;;;;;;;;5105441;27;41484;-65
2023/07/29 08:16:25;;;;;;;4.22;2.85;;;;;;;;;;5105265;27;41401;-65
2023/07/29 08:18:54;;;;;;;5.25;3.10;;;;;;;;;;5107215;27;41790;-65
2023/07/29 08:21:22;;;;;;;6.75;2.83;;;;;;;;;;5108076;27;42997;-65
2023/07/29 08:23:50;;;;;;;3.90;2.10;;;;;;;;;;5109931;27;40721;-65
2023/07/29 08:26:18;;;;;;;4.20;3.00;;;;;;;;;;5110333;27;41276;-65
2023/07/29 08:28:46;;;;;;;4.72;2.13;;;;;;;;;;5110208;27;34394;-67
2023/07/29 08:31:14;;;;;;;9.40;2.78;;;;;;;;;;5109546;27;42632;-65
2023/07/29 08:33:42;;;;;;;10.10;2.60;;;;;;;;;;5109950;27;42135;-63
2023/07/29 08:36:11;;;;;;;6.60;2.90;;;;;;;;;;5109659;27;41101;-63
2023/07/29 08:38:39;;;;;;;6.32;3.42;;;;;;;;;;5110114;27;42113;-65
2023/07/29 08:41:10;;;;;;;4.57;3.53;;;;;;;;;;5110315;27;42622;-64
2023/07/29 08:43:39;;;;;;;6.50;4.55;;;;;;;;;;5108936;27;41183;-63
2023/07/29 08:46:07;;;;;;;4.97;3.35;;;;;;;;;;5110313;27;43177;-64
2023/07/29 08:48:37;;;;;;;14.68;3.58;;;;;;;;;;5109186;28;42643;-64
2023/07/29 08:51:05;;;;;;;4.13;3.53;;;;;;;;;;5109695;27;42608;-64
2023/07/29 08:53:34;;;;;;;4.18;3.70;;;;;;;;;;5105858;27;43102;-65
2023/07/29 08:56:02;;;;;;;11.45;3.08;;;;;;;;;;5089243;28;41925;-66
2023/07/29 08:58:30;;;;;;;9.98;3.83;;;;;;;;;;5100849;28;42683;-64
2023/07/29 09:00:58;;;;;;;4.78;3.47;;;;;;;;;;5110464;27;42855;-64
2023/07/29 09:03:26;;;;;;;4.75;3.47;;;;;;;;;;5109016;27;41218;-64
2023/07/29 09:05:54;;;;;;;7.40;3.97;;;;;;;;;;5110452;27;41293;-64
2023/07/29 09:08:25;;;;;;;46.83;5.13;;;;;;;;;;5109994;27;42401;-63
2023/07/29 09:10:54;;;;;;;12.52;4.07;;;;;;;;;;5096767;27;41365;-61
2023/07/29 09:13:22;;;;;;;13.43;3.63;;;;;;;;;;5089523;28;42089;-62
2023/07/29 09:15:50;;;;;;;11.60;3.88;;;;;;;;;;5089656;28;41410;-60
2023/07/29 09:18:19;;;;;;;13.48;4.05;;;;;;;;;;5088834;28;41665;-63
2023/07/29 09:20:48;;;;;;;13.63;4.35;;;;;;;;;;5089557;28;41512;-63
2023/07/29 09:23:16;;;;;;;27.20;5.97;;;;;;;;;;5088944;28;41702;-63
2023/07/29 09:25:44;;;;;;;16.23;4.53;;;;;;;;;;5088874;28;41779;-63
2023/07/29 09:28:14;;;;;;;17.90;5.25;;;;;;;;;;5089600;28;42176;-64
2023/07/29 09:30:43;;;;;;;8.65;4.10;;;;;;;;;;5087800;28;41283;-63
2023/07/29 09:33:11;;;;;;;15.60;4.72;;;;;;;;;;5107379;28;41592;-62
2023/07/29 09:35:39;;;;;;;9.65;4.07;;;;;;;;;;5109517;27;41870;-62
2023/07/29 09:38:07;;;;;;;4.80;3.60;;;;;;;;;;5109757;27;42251;-62
2023/07/29 09:40:37;;;;;;;4.00;3.45;;;;;;;;;;5109168;27;41589;-62
2023/07/29 09:43:05;;;;;;;6.07;3.50;;;;;;;;;;5109726;27;42306;-62
2023/07/29 09:45:35;;;;;;;5.03;3.20;;;;;;;;;;5108246;27;42680;-63
2023/07/29 09:48:04;;;;;;;6.35;3.15;;;;;;;;;;5108549;28;42049;-62
2023/07/29 09:50:33;;;;;;;5.68;3.00;;;;;;;;;;5108597;27;42296;-62
2023/07/29 09:53:02;;;;;;;7.20;2.97;;;;;;;;;;5108266;27;42786;-62
2023/07/29 09:55:31;;;;;;;3.33;3.03;;;;;;;;;;5109218;27;42147;-63
2023/07/29 09:58:02;;;;;;;3.72;3.20;;;;;;;;;;5109216;27;41713;-62
2023/07/29 10:00:30;;;;;;;2.88;2.53;;;;;;;;;;5108131;27;42117;-63
2023/07/29 10:02:59;;;;;;;5.93;3.05;;;;;;;;;;5109322;27;41348;-62
2023/07/29 10:05:27;;;;;;;5.20;2.88;;;;;;;;;;5105398;27;41619;-63
2023/07/29 10:07:55;;;;;;;5.50;2.63;;;;;;;;;;5103832;28;41521;-62
2023/07/29 10:10:23;;;;;;;2.88;2.63;;;;;;;;;;5100285;27;41261;-62
2023/07/29 10:12:51;;;;;;;3.72;2.50;;;;;;;;;;5107532;27;41824;-62
2023/07/29 10:15:19;;;;;;;5.30;2.75;;;;;;;;;;5108327;27;43088;-63
2023/07/29 10:17:47;;;;;;;3.58;2.30;;;;;;;;;;5109094;27;41038;-62
2023/07/29 10:20:18;;;;;;;4.18;2.35;;;;;;;;;;5113751;27;40903;-62
2023/07/29 10:22:47;;;;;;;4.63;2.40;;;;;;;;;;5107924;27;42464;-63
2023/07/29 10:25:16;;;;;;;2.80;2.50;;;;;;;;;;5116727;27;42321;-62
2023/07/29 10:27:44;;;;;;;3.90;2.40;;;;;;;;;;5109390;27;43185;-62
2023/07/29 10:30:13;;;;;;;3.03;2.38;;;;;;;;;;5106771;28;41416;-62
2023/07/29 10:32:43;;;;;;;3.17;2.40;;;;;;;;;;5101548;27;43157;-63
2023/07/29 10:35:12;;;;;;;3.65;2.58;;;;;;;;;;5105894;27;43251;-63
2023/07/29 10:37:41;;;;;;;2.35;2.10;;;;;;;;;;5106991;27;40803;-63
2023/07/29 10:40:10;;;;;;;2.33;2.03;;;;;;;;;;5095824;27;42597;-63
2023/07/29 10:42:38;;;;;;;3.03;2.00;;;;;;;;;;5106079;27;41277;-63
2023/07/29 10:45:18;;;;;;;4.40;2.03;;;;;;;;;;5108210;27;42233;-63
2023/07/29 10:47:46;;;;;;;2.70;1.88;;;;;;;;;;5105647;28;41864;-62
2023/07/29 10:50:18;;;;;;;3.35;2.33;;;;;;;;;;5107888;27;41575;-62
2023/07/29 10:52:49;;;;;;;3.92;2.10;;;;;;;;;;5105971;27;42081;-63
2023/07/29 10:55:29;;;;;;;3.92;2.20;;;;;;;;;;5102225;27;42272;-62
2023/07/29 10:58:12;;;;;;;3.90;2.20;;;;;;;;;;5103558;27;40888;-62
2023/07/29 11:00:42;;;;;;;5.13;1.92;;;;;;;;;;5099324;27;42210;-62
2023/07/29 11:03:10;;;;;;;3.38;1.85;;;;;;;;;;5106119;27;40852;-62
2023/07/29 11:05:48;;;;;;;2.25;1.77;;;;;;;;;;5107096;27;42570;-62
2023/07/29 11:08:20;;;;;;;2.80;1.58;;;;;;;;;;5108263;27;42041;-62
2023/07/29 11:11:04;;;;;;;2.28;1.60;;;;;;;;;;5097563;27;41832;-63
2023/07/29 11:13:33;;;;;;;2.80;1.58;;;;;;;;;;5087316;28;42360;-62
2023/07/29 11:16:01;;;;;;;3.38;1.70;;;;;;;;;;5102729;27;41046;-62
2023/07/29 11:18:30;;;;;;;3.20;1.73;;;;;;;;;;5106309;27;41100;-62
2023/07/29 11:20:58;;;;;;;2.38;1.42;;;;;;;;;;5106338;27;41920;-62
2023/07/29 11:23:31;;;;;;;2.17;1.88;;;;;;;;;;5108412;27;42227;-63
2023/07/29 11:25:59;;;;;;;3.45;1.65;;;;;;;;;;5105610;27;42458;-63
2023/07/29 11:28:27;;;;;;;2.45;1.80;;;;;;;;;;5107024;27;42309;-63
2023/07/29 11:30:55;;;;;;;6.15;2.10;;;;;;;;;;5106105;27;40967;-64
2023/07/29 11:33:24;;;;;;;4.20;2.13;;;;;;;;;;5088326;27;42242;-62
2023/07/29 11:35:52;;;;;;;2.85;2.13;;;;;;;;;;5098511;27;41882;-63
2023/07/29 11:38:20;;;;;;;3.17;1.85;;;;;;;;;;5105156;27;41363;-62
2023/07/29 11:40:56;;;;;;;2.90;1.90;;;;;;;;;;5106783;27;42159;-62
2023/07/29 11:43:24;;;;;;;6.90;2.22;;;;;;;;;;5105428;27;43152;-62
2023/07/29 11:45:52;;;;;;;5.55;2.08;;;;;;;;;;5106686;27;41683;-61
2023/07/29 11:48:27;;;;;;;5.55;2.28;;;;;;;;;;5105074;27;42363;-62
2023/07/29 11:50:55;;;;;;;4.35;2.10;;;;;;;;;;5107684;27;41464;-61
2023/07/29 11:53:23;;;;;;;7.28;2.00;;;;;;;;;;5105012;27;41581;-62
2023/07/29 11:55:51;;;;;;;6.55;2.22;;;;;;;;;;5105115;27;42542;-62
2023/07/29 11:58:20;;;;;;;2.08;1.75;;;;;;;;;;5105163;27;41053;-62
2023/07/29 12:00:48;;;;;;;2.38;2.17;;;;;;;;;;5104053;27;41787;-62
2023/07/29 12:03:17;;;;;;;6.50;2.15;;;;;;;;;;5105088;27;43191;-60
2023/07/29 12:05:46;;;;;;;6.50;2.20;;;;;;;;;;5104327;27;42178;-61
2023/07/29 12:08:14;;;;;;;4.18;2.20;;;;;;;;;;5097117;27;41588;-61
2023/07/29 12:10:42;;;;;;;1.92;1.80;;;;;;;;;;5095372;28;41152;-61
2023/07/29 12:13:10;;;;;;;3.17;2.10;;;;;;;;;;5097024;28;41270;-60
2023/07/29 12:15:40;;;;;;;40.85;22.13;;;;;;;;;;5095340;28;42715;-60
2023/07/29 12:18:08;;;;;;;20.58;13.35;;;;;;;;;;5095792;28;41339;-61
2023/07/29 12:20:36;;;;;;;17.58;10.20;;;;;;;;;;5105898;28;41589;-61
2023/07/29 12:23:05;;;;;;;16.55;9.27;;;;;;;;;;5106624;28;41844;-61
2023/07/29 12:25:33;;;;;;;12.20;6.80;;;;;;;;;;5106384;27;41739;-62
2023/07/29 12:28:04;;;;;;;14.60;7.45;;;;;;;;;;5105840;28;41781;-61
2023/07/29 12:30:32;;;;;;;9.82;5.10;;;;;;;;;;5106816;27;42251;-61
2023/07/29 12:33:02;;;;;;;6.97;4.50;;;;;;;;;;5106191;27;42559;-61
2023/07/29 12:35:37;;;;;;;6.97;4.85;;;;;;;;;;5106007;27;42596;-61
2023/07/29 12:38:04;;;;;;;5.97;4.00;;;;;;;;;;5086333;28;41249;-64
2023/07/29 12:40:32;;;;;;;6.80;3.72;;;;;;;;;;5093620;28;41238;-64
2023/07/29 12:43:00;;;;;;;5.47;4.00;;;;;;;;;;5103029;27;42858;-66
2023/07/29 12:45:28;;;;;;;5.28;3.65;;;;;;;;;;5120852;27;42924;-64
2023/07/29 12:47:57;;;;;;;5.50;3.45;;;;;;;;;;5123764;27;41355;-63
2023/07/29 12:50:26;;;;;;;4.75;2.83;;;;;;;;;;5106287;27;41491;-64
2023/07/29 12:52:54;;;;;;;6.70;3.15;;;;;;;;;;5107090;27;41367;-64
2023/07/29 12:55:22;;;;;;;3.08;2.47;;;;;;;;;;5105689;27;43060;-64
2023/07/29 12:57:51;;;;;;;3.78;2.60;;;;;;;;;;5106532;27;42294;-64
2023/07/29 13:00:19;;;;;;;3.45;2.58;;;;;;;;;;5106313;27;41506;-64
2023/07/29 13:02:47;;;;;;;2.92;2.30;;;;;;;;;;5105528;27;41536;-64
2023/07/29 13:05:15;;;;;;;5.05;2.42;;;;;;;;;;5108813;27;40964;-64
2023/07/29 13:07:44;;;;;;;2.80;2.20;;;;;;;;;;5110128;27;41965;-64
2023/07/29 13:10:12;;;;;;;5.97;2.30;;;;;;;;;;5108883;27;43073;-64
2023/07/29 13:12:40;;;;;;;3.25;2.47;;;;;;;;;;5109695;27;41153;-64
2023/07/29 13:15:09;;;;;;;4.47;2.20;;;;;;;;;;5109728;27;42888;-64
2023/07/29 13:17:39;;;;;;;2.78;1.52;;;;;;;;;;5108720;27;40998;-64
2023/07/29 13:20:07;;;;;;;2.28;2.08;;;;;;;;;;5109741;27;41601;-64
2023/07/29 13:22:35;;;;;;;3.00;1.90;;;;;;;;;;5109119;27;42157;-64
2023/07/29 13:25:05;;;;;;;2.80;1.80;;;;;;;;;;5108859;27;40862;-64
2023/07/29 13:27:33;;;;;;;4.82;2.20;;;;;;;;;;5109051;27;42630;-64
2023/07/29 13:30:01;;;;;;;2.45;1.95;;;;;;;;;;5109617;27;42886;-64
2023/07/29 13:32:29;;;;;;;2.22;1.67;;;;;;;;;;5107928;27;40535;-64
2023/07/29 13:34:57;;;;;;;3.40;1.80;;;;;;;;;;5110159;27;42735;-61
2023/07/29 13:37:25;;;;;;;3.50;1.70;;;;;;;;;;5108210;27;41813;-64
2023/07/29 13:39:53;;;;;;;2.35;1.40;;;;;;;;;;5109501;27;41559;-64
2023/07/29 13:42:22;;;;;;;2.92;1.52;;;;;;;;;;5109854;27;41785;-64
2023/07/29 13:44:51;;;;;;;8.63;1.60;;;;;;;;;;5108968;27;41104;-64
2023/07/29 13:47:18;;;;;;;4.90;1.60;;;;;;;;;;5108962;27;42267;-63
2023/07/29 13:49:49;;;;;;;3.13;1.67;;;;;;;;;;5109289;27;41813;-63
2023/07/29 13:52:17;;;;;;;2.30;1.27;;;;;;;;;;5108150;27;41388;-63
2023/07/29 13:54:45;;;;;;;1.52;1.20;;;;;;;;;;5109261;27;42670;-64
2023/07/29 13:57:13;;;;;;;3.30;1.30;;;;;;;;;;5109750;27;42301;-64
2023/07/29 13:59:42;;;;;;;1.67;1.50;;;;;;;;;;5104945;27;42237;-64
2023/07/29 14:02:10;;;;;;;2.95;1.42;;;;;;;;;;5108696;27;42786;-63
2023/07/29 14:04:38;;;;;;;1.50;1.35;;;;;;;;;;5108382;27;42017;-63
2023/07/29 14:07:06;;;;;;;1.80;1.38;;;;;;;;;;5108308;27;41715;-64
2023/07/29 14:09:35;;;;;;;1.75;1.27;;;;;;;;;;5108637;27;42685;-63
2023/07/29 14:12:03;;;;;;;1.50;1.40;;;;;;;;;;5109005;27;41210;-64
2023/07/29 14:14:31;;;;;;;1.88;1.40;;;;;;;;;;5108089;27;43220;-64
2023/07/29 14:17:00;;;;;;;1.63;1.52;;;;;;;;;;5108685;27;42186;-64
2023/07/29 14:19:28;;;;;;;2.15;1.38;;;;;;;;;;5108865;27;41445;-64
2023/07/29 14:21:56;;;;;;;4.20;1.50;;;;;;;;;;5108635;27;42070;-63
2023/07/29 14:24:24;;;;;;;1.52;1.20;;;;;;;;;;5108648;27;41003;-63
2023/07/29 14:26:52;;;;;;;1.90;1.50;;;;;;;;;;5107410;27;41200;-65
2023/07/29 14:29:20;;;;;;;1.55;1.40;;;;;;;;;;5108608;27;43066;-63
2023/07/29 14:31:48;;;;;;;1.88;1.50;;;;;;;;;;5107627;27;41180;-64
2023/07/29 14:34:17;;;;;;;3.20;1.80;;;;;;;;;;5107757;27;41062;-65
2023/07/29 14:36:45;;;;;;;2.38;1.55;;;;;;;;;;5107981;27;42381;-65
2023/07/29 14:39:13;;;;;;;8.98;1.83;;;;;;;;;;5109059;27;41851;-65
2023/07/29 14:41:41;;;;;;;2.97;1.58;;;;;;;;;;5107967;27;41827;-65
2023/07/29 14:44:09;;;;;;;1.65;1.55;;;;;;;;;;5107584;27;41131;-65
2023/07/29 14:46:37;;;;;;;4.20;1.70;;;;;;;;;;5106046;27;41656;-65
2023/07/29 14:49:05;;;;;;;5.38;1.30;;;;;;;;;;5106045;27;42076;-65
2023/07/29 14:51:35;;;;;;;5.50;1.52;;;;;;;;;;5105525;27;40954;-65